Time;durP1;ratioP1;P1;durP2;ratioP2;P2;SDS_P1;SDS_P2;PMS_P1;PMS_P2;Temp;Humidity;BMP_temperature;BMP_pressure;BME280_temperature;BME280_humidity;BME280_pressure;Samples;Min_cycle;Max_cycle;Signal;HPM_P1;HPM_P2
2023/07/22 00:01:19;;;;;;;4.22;1.80;;;;;;;19.41;77.65;92318.84;4808617;29;20063;-80
2023/07/22 00:03:44;;;;;;;4.55;1.88;;;;;;;19.35;78.35;92328.94;4808797;29;20115;-79
2023/07/22 00:06:10;;;;;;;5.72;2.40;;;;;;;19.28;78.78;92333.31;4808216;29;20424;-80
2023/07/22 00:08:37;;;;;;;4.13;2.30;;;;;;;19.21;81.15;92317.25;4808859;29;20070;-81
2023/07/22 00:11:06;;;;;;;4.10;2.33;;;;;;;19.10;81.80;92317.75;4809017;29;20034;-79
2023/07/22 00:13:33;;;;;;;4.53;2.00;;;;;;;18.99;83.52;92305.34;4808959;29;20046;-79
2023/07/22 00:15:59;;;;;;;4.05;2.05;;;;;;;18.95;84.55;92307.13;4807998;29;20031;-80
2023/07/22 00:18:27;;;;;;;4.43;1.95;;;;;;;18.90;83.20;92302.84;4808747;29;20050;-80
2023/07/22 00:20:53;;;;;;;4.72;2.28;;;;;;;18.85;82.85;92301.22;4805602;29;20042;-79
2023/07/22 00:23:19;;;;;;;4.25;2.30;;;;;;;18.86;92.83;92294.81;4809123;29;20117;-80
2023/07/22 00:25:49;;;;;;;7.85;3.10;;;;;;;18.79;100.00;92301.81;4809586;29;20486;-81
2023/07/22 00:28:15;;;;;;;8.90;3.30;;;;;;;18.64;100.00;92292.69;4817331;29;20092;-80
2023/07/22 00:30:41;;;;;;;6.85;3.45;;;;;;;18.61;100.00;92296.81;4809769;29;20102;-80
2023/07/22 00:33:08;;;;;;;6.25;2.80;;;;;;;18.55;100.00;92305.34;4807317;29;20043;-79
2023/07/22 00:35:35;;;;;;;9.32;3.28;;;;;;;18.49;100.00;92299.53;4809074;29;20035;-81
2023/07/22 00:38:01;;;;;;;9.05;3.60;;;;;;;18.41;100.00;92295.16;4808520;29;20100;-80
2023/07/22 00:40:27;;;;;;;6.72;3.75;;;;;;;18.35;100.00;92292.00;4806605;29;20034;-80
2023/07/22 00:42:53;;;;;;;9.77;3.30;;;;;;;18.30;100.00;92292.22;4807869;29;20042;-80
2023/07/22 00:45:19;;;;;;;7.28;3.65;;;;;;;18.25;100.00;92293.22;4806921;29;20031;-80
2023/07/22 00:47:45;;;;;;;6.00;3.25;;;;;;;18.25;100.00;92289.81;4806891;29;20054;-79
2023/07/22 00:50:11;;;;;;;6.93;3.55;;;;;;;18.20;100.00;92293.47;4791738;29;20054;-80
2023/07/22 00:52:38;;;;;;;6.80;3.40;;;;;;;18.15;100.00;92285.78;4808192;29;20453;-79
2023/07/22 00:55:05;;;;;;;7.70;3.67;;;;;;;18.09;100.00;92284.47;4791382;29;20039;-80
2023/07/22 00:57:31;;;;;;;6.47;3.88;;;;;;;18.05;100.00;92281.72;4803559;29;20096;-80
2023/07/22 00:59:57;;;;;;;5.80;3.00;;;;;;;17.98;100.00;92286.06;4805600;29;20042;-80
2023/07/22 01:02:23;;;;;;;6.38;3.28;;;;;;;17.94;100.00;92287.84;4808585;29;20050;-79
2023/07/22 01:04:50;;;;;;;7.57;3.45;;;;;;;17.90;100.00;92290.41;4808578;29;20081;-80
2023/07/22 01:07:16;;;;;;;5.63;3.40;;;;;;;17.85;100.00;92298.56;4806265;29;20039;-80
2023/07/22 01:09:43;;;;;;;6.20;3.40;;;;;;;17.76;100.00;92285.41;4807264;29;20395;-81
2023/07/22 01:12:09;;;;;;;8.05;3.03;;;;;;;17.75;100.00;92288.41;4806543;29;20497;-81
2023/07/22 01:14:37;;;;;;;5.75;2.95;;;;;;;17.64;100.00;92288.88;4806087;29;20095;-81
2023/07/22 01:17:04;;;;;;;4.60;2.63;;;;;;;17.66;100.00;92291.97;4808226;29;20515;-79
2023/07/22 01:19:30;;;;;;;5.50;2.58;;;;;;;17.62;100.00;92298.25;4806768;29;20129;-80
2023/07/22 01:21:59;;;;;;;6.93;2.40;;;;;;;17.60;100.00;92303.09;4807005;29;20164;-80
2023/07/22 01:24:25;;;;;;;4.97;2.53;;;;;;;17.57;100.00;92298.50;4807706;29;20039;-79
2023/07/22 01:26:51;;;;;;;6.00;2.03;;;;;;;17.56;100.00;92296.94;4806995;29;20138;-80
2023/07/22 01:29:17;;;;;;;5.63;2.55;;;;;;;17.56;100.00;92297.72;4803056;29;20125;-80
2023/07/22 01:31:46;;;;;;;6.72;2.35;;;;;;;17.55;100.00;92288.22;4807577;29;20065;-80
2023/07/22 01:34:12;;;;;;;5.03;2.50;;;;;;;17.56;100.00;92295.06;4807096;29;20031;-80
2023/07/22 01:36:38;;;;;;;6.20;2.55;;;;;;;17.53;100.00;92303.66;4806702;29;20397;-80
2023/07/22 01:39:05;;;;;;;4.93;2.17;;;;;;;17.53;100.00;92301.03;4808139;29;20069;-80
2023/07/22 01:41:31;;;;;;;5.78;2.70;;;;;;;17.50;100.00;92300.94;4806072;29;20057;-80
2023/07/22 01:43:57;;;;;;;5.03;2.60;;;;;;;17.49;100.00;92305.44;4816894;29;20030;-81
2023/07/22 01:46:23;;;;;;;5.20;2.80;;;;;;;17.50;100.00;92304.34;4824522;29;20077;-79
2023/07/22 01:48:48;;;;;;;5.82;2.63;;;;;;;17.51;100.00;92292.63;4810739;29;20103;-80
2023/07/22 01:51:14;;;;;;;5.85;2.70;;;;;;;17.50;100.00;92304.34;4805122;29;20042;-80
2023/07/22 01:53:40;;;;;;;7.75;3.00;;;;;;;17.45;100.00;92299.25;4806515;29;20057;-79
2023/07/22 01:56:05;;;;;;;8.25;3.03;;;;;;;17.39;100.00;92303.25;4807683;29;20133;-80
2023/07/22 01:58:31;;;;;;;5.72;2.90;;;;;;;17.34;100.00;92300.81;4804121;29;20042;-80
2023/07/22 02:00:57;;;;;;;5.85;2.78;;;;;;;17.26;100.00;92300.59;4799351;29;20454;-79
2023/07/22 02:03:22;;;;;;;5.85;2.88;;;;;;;17.20;100.00;92290.56;4805343;29;20050;-80
2023/07/22 02:05:48;;;;;;;6.75;2.97;;;;;;;17.19;100.00;92303.03;4815937;29;20042;-80
2023/07/22 02:08:14;;;;;;;5.32;3.15;;;;;;;17.14;100.00;92297.22;4809689;29;20042;-79
2023/07/22 02:10:39;;;;;;;7.03;3.40;;;;;;;17.13;100.00;92300.94;4814966;29;20042;-80
2023/07/22 02:13:05;;;;;;;6.18;2.97;;;;;;;17.09;100.00;92310.63;4808360;29;20437;-79
2023/07/22 02:15:32;;;;;;;5.10;2.80;;;;;;;17.05;100.00;92315.81;4808183;29;20378;-80
2023/07/22 02:17:57;;;;;;;6.20;2.70;;;;;;;17.06;100.00;92306.78;4806715;29;20100;-80
2023/07/22 02:20:23;;;;;;;4.95;2.53;;;;;;;17.01;100.00;92310.41;4797030;29;20434;-79
2023/07/22 02:22:49;;;;;;;6.15;2.58;;;;;;;16.97;100.00;92311.41;4809405;29;20075;-79
2023/07/22 02:25:15;;;;;;;5.30;2.60;;;;;;;16.92;100.00;92311.63;4792453;29;20043;-80
2023/07/22 02:27:41;;;;;;;5.85;2.60;;;;;;;16.88;100.00;92310.72;4811184;29;20498;-80
2023/07/22 02:30:10;;;;;;;8.85;2.80;;;;;;;16.84;100.00;92311.41;4810244;29;20056;-79
2023/07/22 02:32:40;;;;;;;4.57;2.55;;;;;;;16.84;100.00;92311.41;4815008;29;20043;-79
2023/07/22 02:35:09;;;;;;;5.93;2.70;;;;;;;16.81;100.00;92309.41;4811039;29;20035;-79
2023/07/22 02:37:38;;;;;;;7.10;2.80;;;;;;;16.77;100.00;92313.75;4810706;29;20046;-78
2023/07/22 02:40:13;;;;;;;5.03;2.50;;;;;;;16.77;100.00;92320.91;4810161;29;20043;-79
2023/07/22 02:42:39;;;;;;;5.78;2.67;;;;;;;16.78;100.00;92317.97;4789979;29;20494;-79
2023/07/22 02:45:07;;;;;;;5.18;2.65;;;;;;;16.80;100.00;92317.66;4798102;29;20490;-79
2023/07/22 02:47:34;;;;;;;5.55;2.80;;;;;;;16.78;100.00;92317.97;4809058;29;20059;-80
2023/07/22 02:50:00;;;;;;;5.45;2.80;;;;;;;16.79;100.00;92319.53;4809192;29;20038;-80
2023/07/22 02:52:26;;;;;;;6.93;2.70;;;;;;;16.78;100.00;92317.19;4806506;29;20043;-80
2023/07/22 02:55:12;;;;;;;6.13;2.60;;;;;;;16.76;100.00;92309.59;4810192;29;20038;-80
2023/07/22 02:57:39;;;;;;;5.75;2.80;;;;;;;16.75;100.00;92313.34;4809945;29;20031;-79
2023/07/22 03:00:11;;;;;;;5.10;2.83;;;;;;;16.71;100.00;92312.44;4818855;29;20516;-80
2023/07/22 03:02:38;;;;;;;6.93;2.53;;;;;;;16.68;100.00;92314.97;4809071;29;20050;-80
2023/07/22 03:05:07;;;;;;;5.60;2.70;;;;;;;16.64;100.00;92320.16;4808623;29;20126;-80
2023/07/22 03:07:41;;;;;;;5.05;2.40;;;;;;;16.71;100.00;92328.31;4809823;29;20037;-80
2023/07/22 03:10:07;;;;;;;3.90;2.00;;;;;;;16.75;100.00;92326.56;4810225;29;20514;-80
2023/07/22 03:12:33;;;;;;;4.70;2.30;;;;;;;16.74;100.00;92322.34;4810264;29;20039;-80
2023/07/22 03:15:00;;;;;;;4.47;2.50;;;;;;;16.69;100.00;92325.22;4809315;29;20125;-79
2023/07/22 03:17:26;;;;;;;7.43;2.20;;;;;;;16.65;100.00;92326.97;4809884;29;20410;-80
2023/07/22 03:19:51;;;;;;;6.55;2.63;;;;;;;16.62;100.00;92327.63;4808014;29;20043;-78
2023/07/22 03:22:18;;;;;;;4.00;1.83;;;;;;;16.65;100.00;92324.31;4809475;29;20072;-80
2023/07/22 03:24:45;;;;;;;4.68;2.38;;;;;;;16.76;100.00;92329.97;4797955;29;20055;-80
2023/07/22 03:27:11;;;;;;;5.40;2.63;;;;;;;16.81;100.00;92322.59;4808486;29;20100;-80
2023/07/22 03:29:37;;;;;;;7.25;3.20;;;;;;;16.77;100.00;92321.69;4809431;29;20095;-79
2023/07/22 03:32:03;;;;;;;4.50;2.55;;;;;;;16.73;100.00;92315.53;4793735;29;20062;-79
2023/07/22 03:34:30;;;;;;;5.82;2.97;;;;;;;16.67;100.00;92324.00;4808579;29;20074;-80
2023/07/22 03:36:56;;;;;;;6.30;2.95;;;;;;;16.61;100.00;92323.44;4809395;29;20495;-80
2023/07/22 03:39:22;;;;;;;5.55;2.80;;;;;;;16.56;100.00;92321.75;4809324;29;20235;-79
2023/07/22 03:41:48;;;;;;;5.55;2.95;;;;;;;16.56;100.00;92319.13;4811728;29;20057;-79
2023/07/22 03:44:14;;;;;;;4.28;2.50;;;;;;;16.55;100.00;92324.72;4807775;29;20039;-80
2023/07/22 03:46:39;;;;;;;4.50;2.22;;;;;;;16.51;100.00;92324.63;4808894;29;20047;-80
2023/07/22 03:49:06;;;;;;;7.07;2.50;;;;;;;16.46;100.00;92327.47;4808872;29;20042;-80
2023/07/22 03:51:33;;;;;;;4.60;2.10;;;;;;;16.42;100.00;92331.88;4808153;29;20042;-79
2023/07/22 03:53:59;;;;;;;5.05;2.63;;;;;;;16.35;100.00;92336.91;4808887;29;20053;-80
2023/07/22 03:56:25;;;;;;;4.93;2.65;;;;;;;16.30;100.00;92340.53;4814848;29;20122;-80
2023/07/22 03:58:51;;;;;;;4.45;2.20;;;;;;;16.21;100.00;92337.16;4817257;29;20039;-80
2023/07/22 04:01:17;;;;;;;9.13;2.50;;;;;;;16.21;100.00;92347.72;4811867;29;20123;-80
2023/07/22 04:03:43;;;;;;;3.92;2.05;;;;;;;16.14;100.00;92342.19;4815562;29;20495;-79
2023/07/22 04:06:08;;;;;;;4.30;2.30;;;;;;;16.18;100.00;92351.03;4808728;29;20031;-78
2023/07/22 04:08:34;;;;;;;3.67;2.20;;;;;;;16.16;100.00;92345.28;4807198;29;20042;-80
2023/07/22 04:11:00;;;;;;;5.25;2.30;;;;;;;16.15;100.00;92354.31;4808697;29;20096;-80
2023/07/22 04:13:26;;;;;;;4.57;2.40;;;;;;;16.16;100.00;92355.84;4808144;29;20039;-80
2023/07/22 04:15:52;;;;;;;5.97;2.38;;;;;;;16.13;100.00;92346.72;4808979;29;20027;-80
2023/07/22 04:18:20;;;;;;;5.63;2.25;;;;;;;16.15;100.00;92355.09;4808486;29;20046;-80
2023/07/22 04:20:47;;;;;;;6.43;2.80;;;;;;;16.10;100.00;92354.50;4808326;29;20030;-79
2023/07/22 04:23:13;;;;;;;4.90;2.67;;;;;;;16.12;100.00;92357.59;4813000;29;20042;-79
2023/07/22 04:25:44;;;;;;;6.47;3.17;;;;;;;16.16;100.00;92355.84;4807689;29;20053;-79
2023/07/22 04:28:10;;;;;;;5.05;2.78;;;;;;;16.17;100.00;92363.47;4809095;29;20078;-79
2023/07/22 04:30:39;;;;;;;5.68;3.00;;;;;;;16.18;100.00;92366.88;4814120;29;20430;-79
2023/07/22 04:33:05;;;;;;;5.20;2.95;;;;;;;16.22;100.00;92362.50;4797142;30;20118;-78
2023/07/22 04:35:36;;;;;;;7.32;2.80;;;;;;;16.23;100.00;92364.81;4797941;29;20376;-79
2023/07/22 04:38:03;;;;;;;5.68;3.20;;;;;;;16.31;100.00;92372.97;4805798;29;20082;-79
2023/07/22 04:40:30;;;;;;;5.78;3.38;;;;;;;16.36;100.00;92376.19;4807733;29;20046;-80
2023/07/22 04:42:56;;;;;;;6.43;3.50;;;;;;;16.42;100.00;92364.31;4809052;29;20039;-80
2023/07/22 04:45:25;;;;;;;8.52;4.22;;;;;;;16.48;100.00;92370.16;4809226;29;20043;-79
2023/07/22 04:47:51;;;;;;;7.93;3.90;;;;;;;16.55;100.00;92367.00;4807633;29;20067;-79
2023/07/22 04:50:17;;;;;;;7.25;3.75;;;;;;;16.61;100.00;92376.28;4808165;29;20049;-79
2023/07/22 04:52:46;;;;;;;13.57;3.88;;;;;;;16.63;100.00;92384.66;4808276;29;20039;-79
2023/07/22 04:55:12;;;;;;;6.07;3.53;;;;;;;16.70;100.00;92392.81;4807727;29;20084;-79
2023/07/22 04:57:40;;;;;;;6.47;3.08;;;;;;;16.75;100.00;92392.63;4808108;29;20099;-79
2023/07/22 05:00:11;;;;;;;6.60;3.60;;;;;;;16.82;100.00;92402.72;4808779;29;20126;-79
2023/07/22 05:02:38;;;;;;;7.95;3.38;;;;;;;16.90;100.00;92403.72;4808322;29;20038;-79
2023/07/22 05:05:04;;;;;;;9.45;4.00;;;;;;;16.92;100.00;92401.50;4808275;29;20062;-79
2023/07/22 05:07:30;;;;;;;7.05;3.35;;;;;;;16.96;100.00;92405.81;4803649;29;20047;-78
2023/07/22 05:09:55;;;;;;;6.25;3.40;;;;;;;17.00;100.00;92408.56;4789488;30;20066;-79
2023/07/22 05:12:21;;;;;;;7.45;3.78;;;;;;;17.06;100.00;92404.63;4803351;29;20035;-80
2023/07/22 05:14:46;;;;;;;7.38;3.33;;;;;;;17.11;100.00;92407.03;4789650;30;20647;-79
2023/07/22 05:17:12;;;;;;;11.82;3.85;;;;;;;17.14;100.00;92414.34;4813543;29;20031;-81
2023/07/22 05:19:38;;;;;;;10.43;3.47;;;;;;;17.23;100.00;92411.59;4791015;29;20043;-81
2023/07/22 05:22:03;;;;;;;8.25;3.38;;;;;;;17.30;100.00;92411.81;4808166;29;20127;-80
2023/07/22 05:24:29;;;;;;;5.32;2.90;;;;;;;17.35;100.00;92418.78;4805985;29;20526;-80
2023/07/22 05:26:55;;;;;;;5.47;2.50;;;;;;;17.37;100.00;92422.63;4801831;29;20067;-81
2023/07/22 05:29:20;;;;;;;5.10;2.30;;;;;;;17.37;100.00;92427.16;4777099;29;20099;-81
2023/07/22 05:31:46;;;;;;;4.63;2.63;;;;;;;17.44;100.00;92427.38;4813061;29;20039;-80
2023/07/22 05:34:12;;;;;;;4.60;2.40;;;;;;;17.50;100.00;92426.06;4804745;29;20049;-81
2023/07/22 05:36:43;;;;;;;5.50;2.58;;;;;;;17.60;100.00;92441.50;4812898;29;20549;-81
2023/07/22 05:39:08;;;;;;;7.22;2.72;;;;;;;17.71;100.00;92441.06;4818493;29;20042;-82
2023/07/22 05:41:34;;;;;;;4.93;2.38;;;;;;;17.83;100.00;92441.09;4807290;29;20042;-81
2023/07/22 05:44:00;;;;;;;5.35;2.90;;;;;;;18.01;100.00;92441.63;4798503;29;20845;-79
2023/07/22 05:46:26;;;;;;;5.40;3.00;;;;;;;18.14;100.00;92447.69;4798433;29;20070;-80
2023/07/22 05:48:51;;;;;;;6.55;2.80;;;;;;;18.18;100.00;92443.28;4794662;29;20550;-81
2023/07/22 05:51:17;;;;;;;7.07;2.80;;;;;;;18.22;100.00;92449.44;4803097;29;20043;-79
2023/07/22 05:53:44;;;;;;;5.40;3.00;;;;;;;18.30;100.00;92449.31;4807567;29;20039;-80
2023/07/22 05:56:10;;;;;;;5.47;3.10;;;;;;;18.42;100.00;92456.47;4802818;29;20443;-80
2023/07/22 05:58:36;;;;;;;10.93;3.42;;;;;;;18.32;100.00;92454.28;4801718;29;20041;-77
2023/07/22 06:01:02;;;;;;;7.80;3.65;;;;;;;18.34;100.00;92452.06;4794526;29;20047;-78
2023/07/22 06:03:27;;;;;;;8.00;3.38;;;;;;;18.50;100.00;92460.84;4807683;29;20386;-76
2023/07/22 06:05:53;;;;;;;4.88;2.75;;;;;;;19.37;100.00;92460.53;4814196;29;20039;-77
2023/07/22 06:08:19;;;;;;;5.93;3.05;;;;;;;19.54;100.00;92458.34;4792594;29;20050;-77
2023/07/22 06:10:45;;;;;;;6.93;3.20;;;;;;;20.17;100.00;92459.41;4788701;30;20126;-77
2023/07/22 06:13:11;;;;;;;6.03;3.03;;;;;;;20.79;100.00;92456.94;4790640;29;20038;-77
2023/07/22 06:15:36;;;;;;;7.05;2.90;;;;;;;21.35;100.00;92453.81;4806458;29;20030;-78
2023/07/22 06:18:02;;;;;;;6.25;2.78;;;;;;;21.38;100.00;92457.63;4805709;29;20043;-77
2023/07/22 06:20:28;;;;;;;7.15;3.15;;;;;;;21.78;100.00;92459.88;4814233;29;20047;-77
2023/07/22 06:22:54;;;;;;;4.82;2.72;;;;;;;21.99;99.57;92467.41;4803979;29;20043;-78
2023/07/22 06:25:20;;;;;;;5.32;2.90;;;;;;;21.50;100.00;92467.38;4801784;29;20039;-77
2023/07/22 06:27:46;;;;;;;4.88;2.67;;;;;;;21.07;100.00;92466.56;4803977;29;20494;-76
2023/07/22 06:30:12;;;;;;;4.85;3.03;;;;;;;20.79;100.00;92464.91;4803835;29;20486;-77
2023/07/22 06:32:38;;;;;;;5.68;2.95;;;;;;;21.09;100.00;92461.69;4805620;29;20554;-78
2023/07/22 06:35:04;;;;;;;7.57;3.72;;;;;;;21.70;100.00;92463.53;4803518;29;20524;-77
2023/07/22 06:37:30;;;;;;;5.93;3.20;;;;;;;21.72;100.00;92463.94;4788638;29;20058;-77
2023/07/22 06:39:56;;;;;;;6.45;3.20;;;;;;;21.45;100.00;92467.69;4819468;29;20065;-77
2023/07/22 06:42:22;;;;;;;7.38;2.95;;;;;;;21.38;100.00;92473.63;4806255;29;20046;-77
2023/07/22 06:44:47;;;;;;;7.50;3.22;;;;;;;21.08;100.00;92470.78;4806439;29;20046;-79
2023/07/22 06:47:13;;;;;;;6.57;3.30;;;;;;;20.92;100.00;92471.63;4803664;29;20043;-78
2023/07/22 06:49:41;;;;;;;6.32;3.03;;;;;;;20.71;100.00;92473.84;4804170;29;20075;-76
2023/07/22 06:52:07;;;;;;;7.35;3.63;;;;;;;20.46;100.00;92474.09;4802815;29;20040;-77
2023/07/22 06:54:34;;;;;;;6.50;3.10;;;;;;;20.41;100.00;92471.69;4798786;29;20410;-77
2023/07/22 06:56:59;;;;;;;9.20;3.10;;;;;;;20.13;100.00;92472.63;4801313;29;20070;-78
2023/07/22 06:59:26;;;;;;;6.93;2.83;;;;;;;20.52;100.00;92477.25;4803278;29;20446;-78
2023/07/22 07:01:52;;;;;;;4.93;2.60;;;;;;;20.76;100.00;92476.22;4805472;29;20039;-77
2023/07/22 07:04:17;;;;;;;5.85;2.78;;;;;;;20.59;100.00;92477.44;4801574;29;20038;-76
2023/07/22 07:06:43;;;;;;;8.13;3.10;;;;;;;20.48;100.00;92479.81;4808481;29;20627;-78
2023/07/22 07:09:09;;;;;;;5.35;3.10;;;;;;;20.77;100.00;92485.78;4811434;29;20050;-79
2023/07/22 07:11:35;;;;;;;6.60;2.72;;;;;;;20.70;100.00;92494.38;4812751;29;20399;-83
2023/07/22 07:14:00;;;;;;;5.70;2.28;;;;;;;20.55;100.00;92493.25;4823965;29;20038;-80
2023/07/22 07:16:28;;;;;;;5.30;2.50;;;;;;;20.45;100.00;92493.06;4815048;29;20035;-80
2023/07/22 07:18:55;;;;;;;6.10;2.58;;;;;;;20.43;100.00;92492.63;4815221;29;20042;-79
2023/07/22 07:21:21;;;;;;;4.50;2.40;;;;;;;20.38;99.54;92493.66;4814915;29;20121;-79
2023/07/22 07:23:51;;;;;;;5.38;2.40;;;;;;;20.49;98.80;92497.34;4816195;29;20498;-80
2023/07/22 07:26:20;;;;;;;7.75;2.95;;;;;;;20.88;100.00;92500.06;4827520;29;20462;-81
2023/07/22 07:28:46;;;;;;;5.65;3.03;;;;;;;21.09;100.00;92504.25;4824810;29;20156;-78
2023/07/22 07:31:12;;;;;;;6.30;2.70;;;;;;;21.17;100.00;92505.94;4807040;29;20074;-78
2023/07/22 07:33:38;;;;;;;6.85;2.53;;;;;;;20.81;100.00;92504.47;4808788;29;20077;-78
2023/07/22 07:36:04;;;;;;;6.40;2.85;;;;;;;20.52;100.00;92512.59;4809892;29;20031;-78
2023/07/22 07:38:31;;;;;;;5.75;2.83;;;;;;;20.40;100.00;92507.41;4805371;29;20058;-78
2023/07/22 07:41:02;;;;;;;7.05;3.03;;;;;;;20.17;100.00;92509.91;4824888;29;20038;-78
2023/07/22 07:43:28;;;;;;;6.47;3.30;;;;;;;20.30;100.00;92507.91;4810935;29;20043;-78
2023/07/22 07:46:23;;;;;;;8.18;2.80;;;;;;;20.41;100.00;92516.91;4808160;29;20528;-78
2023/07/22 07:48:51;;;;;;;4.40;2.63;;;;;;;21.02;100.00;92522.75;4813706;29;20052;-77
2023/07/22 07:51:18;;;;;;;5.22;2.90;;;;;;;21.04;92.36;92520.50;4812629;29;20088;-77
2023/07/22 07:53:49;;;;;;;6.05;3.00;;;;;;;20.98;93.01;92520.81;4807781;29;20114;-77
2023/07/22 07:56:16;;;;;;;5.30;3.00;;;;;;;21.13;92.50;92516.50;4809458;29;20042;-77
2023/07/22 07:58:42;;;;;;;5.72;2.60;;;;;;;21.26;96.26;92514.47;4802985;29;20106;-77
2023/07/22 08:01:08;;;;;;;5.05;2.70;;;;;;;21.04;100.00;92515.19;4805872;29;20043;-77
2023/07/22 08:03:34;;;;;;;5.90;2.63;;;;;;;20.84;100.00;92509.84;4806670;29;20043;-77
2023/07/22 08:06:01;;;;;;;6.13;3.03;;;;;;;20.80;100.00;92506.34;4806258;29;20521;-77
2023/07/22 08:08:28;;;;;;;6.63;2.80;;;;;;;20.63;100.00;92510.19;4806758;29;20099;-77
2023/07/22 08:11:01;;;;;;;4.65;2.67;;;;;;;20.99;100.00;92511.69;4806727;29;20043;-77
2023/07/22 08:13:27;;;;;;;4.60;2.50;;;;;;;21.16;85.17;92513.13;4806699;29;20561;-77
2023/07/22 08:15:53;;;;;;;6.63;3.00;;;;;;;21.18;90.04;92518.13;4804928;29;20447;-77
2023/07/22 08:18:19;;;;;;;5.65;2.88;;;;;;;21.47;91.36;92508.03;4807218;29;20329;-77
2023/07/22 08:20:47;;;;;;;5.38;2.50;;;;;;;21.40;90.69;92512.09;4806865;29;20474;-77
2023/07/22 08:23:12;;;;;;;5.45;2.70;;;;;;;21.87;96.06;92509.50;4806749;29;20031;-77
2023/07/22 08:25:38;;;;;;;5.68;2.75;;;;;;;21.80;88.08;92505.56;4806930;29;20616;-77
2023/07/22 08:28:03;;;;;;;5.10;2.95;;;;;;;21.86;91.00;92507.94;4802425;29;20054;-77
2023/07/22 08:30:29;;;;;;;6.10;2.70;;;;;;;22.28;86.68;92515.88;4787772;29;20035;-77
2023/07/22 08:32:54;;;;;;;5.10;2.83;;;;;;;22.54;84.56;92515.13;4796474;29;20452;-77
2023/07/22 08:35:22;;;;;;;5.40;3.28;;;;;;;22.48;84.27;92521.88;4805461;29;20085;-79
2023/07/22 08:37:48;;;;;;;8.40;3.17;;;;;;;22.56;88.79;92515.53;4817190;29;20050;-79
2023/07/22 08:40:13;;;;;;;5.22;2.80;;;;;;;22.58;81.40;92518.56;4809614;29;20479;-79
2023/07/22 08:42:41;;;;;;;7.68;3.13;;;;;;;22.66;90.44;92514.13;4807893;29;20035;-79
2023/07/22 08:45:09;;;;;;;7.07;2.83;;;;;;;22.60;86.32;92519.00;4804295;29;20046;-79
2023/07/22 08:47:43;;;;;;;8.35;3.15;;;;;;;22.61;88.79;92523.22;4808617;29;20118;-79
2023/07/22 08:50:11;;;;;;;5.90;2.92;;;;;;;22.42;91.12;92518.72;4824693;29;20136;-77
2023/07/22 08:52:37;;;;;;;6.60;3.03;;;;;;;22.15;91.22;92522.50;4806552;29;20453;-79
2023/07/22 08:55:04;;;;;;;6.45;3.35;;;;;;;22.55;90.81;92524.63;4808937;29;20087;-76
2023/07/22 08:57:30;;;;;;;5.10;2.95;;;;;;;22.64;91.89;92525.16;4804759;29;20059;-78
2023/07/22 08:59:57;;;;;;;6.40;3.10;;;;;;;22.68;90.58;92524.44;4798694;29;20435;-77
2023/07/22 09:02:25;;;;;;;5.75;3.00;;;;;;;22.76;87.15;92523.41;4804763;29;20038;-77
2023/07/22 09:04:50;;;;;;;6.00;3.10;;;;;;;22.57;86.95;92533.06;4807135;29;20401;-77
2023/07/22 09:07:17;;;;;;;7.55;3.30;;;;;;;22.65;90.23;92525.91;4804190;29;20136;-76
2023/07/22 09:09:46;;;;;;;5.28;2.85;;;;;;;22.63;92.16;92536.19;4803643;29;20039;-77
2023/07/22 09:12:14;;;;;;;5.25;3.00;;;;;;;22.33;85.04;92536.13;4804925;29;20053;-77
2023/07/22 09:14:40;;;;;;;5.70;3.20;;;;;;;22.50;93.62;92540.19;4804789;29;20046;-76
2023/07/22 09:17:06;;;;;;;8.63;3.15;;;;;;;22.84;92.28;92538.38;4804857;29;20039;-77
2023/07/22 09:19:31;;;;;;;7.13;3.25;;;;;;;23.23;92.64;92535.44;4788146;29;20038;-77
2023/07/22 09:21:58;;;;;;;7.80;3.83;;;;;;;23.44;92.41;92538.38;4805344;29;20046;-77
2023/07/22 09:24:25;;;;;;;5.60;3.20;;;;;;;23.17;92.87;92539.56;4805721;29;20062;-77
2023/07/22 09:26:51;;;;;;;8.93;3.38;;;;;;;23.11;90.71;92546.38;4805777;29;20043;-77
2023/07/22 09:29:17;;;;;;;5.22;3.22;;;;;;;23.05;92.24;92544.00;4804729;29;20035;-76
2023/07/22 09:31:54;;;;;;;5.57;3.10;;;;;;;23.06;90.57;92540.22;4805297;29;20039;-77
2023/07/22 09:34:20;;;;;;;6.25;2.70;;;;;;;23.14;87.58;92537.63;4802903;29;20087;-77
2023/07/22 09:36:56;;;;;;;6.00;3.00;;;;;;;23.42;90.64;92532.63;4805203;29;20482;-77
2023/07/22 09:39:23;;;;;;;5.10;2.70;;;;;;;23.44;87.07;92537.59;4805532;29;20044;-77
2023/07/22 09:41:49;;;;;;;5.97;2.70;;;;;;;23.27;91.20;92525.59;4805318;29;20074;-77
2023/07/22 09:44:15;;;;;;;5.72;2.65;;;;;;;23.43;85.60;92526.13;4804247;29;20497;-77
2023/07/22 09:46:40;;;;;;;5.95;2.78;;;;;;;23.30;84.33;92526.75;4796546;29;20128;-78
2023/07/22 09:49:09;;;;;;;7.13;2.80;;;;;;;23.37;85.88;92524.94;4801547;29;20047;-76
2023/07/22 09:51:39;;;;;;;6.93;3.40;;;;;;;23.56;87.15;92528.56;4812019;29;20038;-77
2023/07/22 09:54:06;;;;;;;7.15;3.38;;;;;;;23.80;86.86;92532.63;4811922;29;20502;-78
2023/07/22 09:56:42;;;;;;;6.57;3.00;;;;;;;23.22;87.55;92531.25;4806620;29;20066;-77
2023/07/22 09:59:10;;;;;;;5.45;2.90;;;;;;;23.38;85.67;92529.16;4815940;29;20046;-77
2023/07/22 10:01:39;;;;;;;5.60;3.22;;;;;;;23.44;85.52;92527.69;4806054;29;20043;-77
2023/07/22 10:04:06;;;;;;;5.90;3.30;;;;;;;23.48;88.07;92531.19;4805235;29;20066;-76
2023/07/22 10:06:32;;;;;;;6.70;3.50;;;;;;;23.67;92.59;92527.53;4804998;29;20038;-77
2023/07/22 10:09:05;;;;;;;14.40;8.18;;;;;;;23.50;90.00;92514.75;4804671;29;20412;-77
2023/07/22 10:11:32;;;;;;;11.05;5.13;;;;;;;23.39;89.68;92505.88;4800585;29;20274;-77
2023/07/22 10:13:58;;;;;;;9.13;5.13;;;;;;;23.21;87.40;92497.66;4804122;29;20520;-77
2023/07/22 10:16:25;;;;;;;7.72;3.50;;;;;;;23.53;88.36;92507.91;4803954;29;20046;-77
2023/07/22 10:18:51;;;;;;;5.25;3.22;;;;;;;23.43;85.57;92510.13;4803522;29;20486;-76
2023/07/22 10:21:17;;;;;;;9.20;3.17;;;;;;;23.03;86.47;92524.94;4806368;29;20058;-78
2023/07/22 10:23:45;;;;;;;6.10;3.10;;;;;;;23.36;88.96;92519.97;4804389;29;20482;-78
2023/07/22 10:26:14;;;;;;;5.15;2.90;;;;;;;23.56;84.44;92517.88;4790083;29;20035;-76
2023/07/22 10:28:41;;;;;;;5.30;3.05;;;;;;;23.87;85.23;92514.78;4790633;29;20043;-78
2023/07/22 10:31:07;;;;;;;6.18;3.10;;;;;;;24.03;81.64;92513.78;4796714;29;20046;-79
2023/07/22 10:33:34;;;;;;;5.18;2.97;;;;;;;23.89;79.08;92514.44;4817354;29;20153;-79
2023/07/22 10:36:08;;;;;;;6.53;3.00;;;;;;;23.89;83.73;92517.09;4824915;29;20558;-78
2023/07/22 10:38:35;;;;;;;6.63;3.75;;;;;;;23.94;85.25;92511.41;4806495;29;20076;-78
2023/07/22 10:41:18;;;;;;;5.30;2.60;;;;;;;24.06;83.66;92510.34;4809582;29;20454;-76
2023/07/22 10:43:58;;;;;;;5.28;2.53;;;;;;;23.85;81.22;92508.28;4807188;29;20637;-77
2023/07/22 10:46:33;;;;;;;6.05;3.42;;;;;;;23.87;84.31;92506.75;4803489;29;20055;-77
2023/07/22 10:49:16;;;;;;;7.85;4.30;;;;;;;24.12;83.42;92516.91;4794638;29;20065;-77
2023/07/22 10:51:48;;;;;;;4.57;2.90;;;;;;;24.22;79.48;92510.84;4823089;29;20129;-79
2023/07/22 10:54:14;;;;;;;;;;;;;;;24.12;80.12;92510.78;4807784;29;20042;-76
2023/07/22 10:56:44;;;;;;;5.75;3.00;;;;;;;23.65;83.12;92513.03;4808838;29;20449;-78
2023/07/22 10:59:13;;;;;;;5.25;2.70;;;;;;;23.56;83.46;92517.88;4809588;29;20047;-78
2023/07/22 11:01:40;;;;;;;5.70;3.20;;;;;;;23.34;83.71;92517.66;4808314;29;20078;-78
2023/07/22 11:04:10;;;;;;;6.15;3.20;;;;;;;23.09;89.82;92521.94;4812658;29;20035;-78
2023/07/22 11:06:38;;;;;;;6.10;3.25;;;;;;;22.74;86.80;92521.09;4802921;29;20044;-79
2023/07/22 11:09:04;;;;;;;6.25;3.20;;;;;;;22.96;90.44;92514.13;4809090;29;20050;-78
2023/07/22 11:11:41;;;;;;;6.95;3.42;;;;;;;23.22;88.87;92515.25;4810849;29;20050;-78
2023/07/22 11:14:38;;;;;;;5.63;3.00;;;;;;;23.48;84.72;92517.03;4810947;29;20047;-78
2023/07/22 11:17:07;;;;;;;6.10;3.30;;;;;;;23.68;84.80;92504.25;4805431;29;20053;-77
2023/07/22 11:19:34;;;;;;;4.85;3.10;;;;;;;23.79;88.79;92504.41;4808117;29;20502;-78
2023/07/22 11:22:00;;;;;;;6.00;3.42;;;;;;;23.76;86.84;92499.78;4796692;29;20097;-78
2023/07/22 11:24:26;;;;;;;6.15;2.90;;;;;;;23.86;83.16;92499.88;4807564;29;20058;-78
2023/07/22 11:26:52;;;;;;;5.95;2.75;;;;;;;24.21;79.70;92493.28;4808421;29;20031;-77
2023/07/22 11:29:18;;;;;;;4.50;2.72;;;;;;;24.43;75.07;92493.41;4800754;29;20498;-78